Time;durP1;ratioP1;P1;durP2;ratioP2;P2;SDS_P1;SDS_P2;PMS_P1;PMS_P2;Temp;Humidity;BMP_temperature;BMP_pressure;BME280_temperature;BME280_humidity;BME280_pressure;Samples;Min_cycle;Max_cycle;Signal;HPM_P1;HPM_P2
2022/06/21 00:00:59;;;;;;;25.83;23.53;;;22.40;99.90;;;;;;6225548;28;20225;-67
2022/06/21 00:04:03;;;;;;;25.30;23.07;;;22.40;99.90;;;;;;6225222;28;20237;-67
2022/06/21 00:07:11;;;;;;;22.87;21.07;;;22.40;99.90;;;;;;6225098;28;20229;-67
2022/06/21 00:10:18;;;;;;;25.27;22.93;;;22.50;99.90;;;;;;6225037;28;20231;-67
2022/06/21 00:13:24;;;;;;;24.80;22.70;;;22.50;99.90;;;;;;6224794;28;20233;-67
2022/06/21 00:16:30;;;;;;;22.83;20.93;;;22.60;99.90;;;;;;6225299;28;20225;-67
2022/06/21 00:19:33;;;;;;;22.40;20.30;;;22.50;99.90;;;;;;6224825;28;20240;-67
2022/06/21 00:22:36;;;;;;;21.60;19.70;;;22.50;99.90;;;;;;6224876;28;20239;-66
2022/06/21 00:25:42;;;;;;;23.10;20.97;;;22.40;99.90;;;;;;6224764;28;20228;-67
2022/06/21 00:28:45;;;;;;;22.90;20.90;;;22.40;99.90;;;;;;6228075;28;20229;-67
2022/06/21 00:31:49;;;;;;;23.30;20.93;;;22.40;99.90;;;;;;6229418;28;20233;-66
2022/06/21 00:34:53;;;;;;;23.20;21.00;;;22.40;99.90;;;;;;6229787;28;20201;-66
2022/06/21 00:37:56;;;;;;;21.63;20.00;;;22.40;99.90;;;;;;6229684;28;20517;-67
2022/06/21 00:41:05;;;;;;;22.40;20.40;;;22.30;99.90;;;;;;6229320;28;20205;-67
2022/06/21 00:44:13;;;;;;;22.80;20.73;;;22.30;99.90;;;;;;6229284;28;20253;-67
2022/06/21 00:47:19;;;;;;;19.97;18.27;;;22.30;99.90;;;;;;6224540;28;20229;-67
2022/06/21 00:50:32;;;;;;;20.73;19.07;;;22.30;99.90;;;;;;6228916;28;20233;-67
2022/06/21 00:53:38;;;;;;;23.57;21.20;;;22.30;99.90;;;;;;6229232;28;20232;-67
2022/06/21 00:56:51;;;;;;;22.53;20.53;;;22.30;99.90;;;;;;6228801;28;20230;-67
2022/06/21 00:59:58;;;;;;;21.77;19.93;;;22.30;99.90;;;;;;6228877;28;20231;-67
2022/06/21 01:03:05;;;;;;;22.07;20.13;;;22.20;99.90;;;;;;6228802;28;20225;-66
2022/06/21 01:06:13;;;;;;;24.03;21.50;;;22.20;99.90;;;;;;6228908;28;20243;-67
2022/06/21 01:09:22;;;;;;;22.20;20.20;;;22.30;99.90;;;;;;6228581;28;20692;-67
2022/06/21 01:12:30;;;;;;;21.70;19.83;;;22.30;99.90;;;;;;6228439;28;20233;-66
2022/06/21 01:15:38;;;;;;;23.77;21.57;;;22.30;99.90;;;;;;6228708;28;20237;-67
2022/06/21 01:18:43;;;;;;;22.70;20.70;;;22.30;99.90;;;;;;6228188;28;20548;-67
2022/06/21 01:21:51;;;;;;;22.60;20.60;;;22.20;99.90;;;;;;6228572;28;20243;-67
2022/06/21 01:25:10;;;;;;;20.80;19.20;;;22.20;99.90;;;;;;6228015;28;20233;-68
2022/06/21 01:28:16;;;;;;;21.87;19.80;;;22.20;99.90;;;;;;6228389;28;20244;-67
2022/06/21 01:31:19;;;;;;;19.97;18.27;;;22.20;99.90;;;;;;6228030;28;20575;-67
2022/06/21 01:34:24;;;;;;;22.57;20.70;;;22.20;99.90;;;;;;6227654;28;20279;-67
2022/06/21 01:37:30;;;;;;;21.10;19.10;;;22.20;99.90;;;;;;6228052;28;20665;-67
2022/06/21 01:40:39;;;;;;;21.67;19.67;;;22.20;99.90;;;;;;6227490;28;20233;-67
2022/06/21 01:43:47;;;;;;;19.20;17.50;;;22.10;99.90;;;;;;6227719;28;20229;-67
2022/06/21 01:46:51;;;;;;;19.37;17.50;;;22.10;99.90;;;;;;6227735;28;20217;-66
2022/06/21 01:49:59;;;;;;;17.57;16.07;;;22.20;99.90;;;;;;6227547;28;20205;-67
2022/06/21 01:53:03;;;;;;;18.57;16.80;;;22.20;99.90;;;;;;6227625;28;20574;-67
2022/06/21 01:56:10;;;;;;;18.30;14.80;;;22.30;99.90;;;;;;6227414;28;20209;-67
2022/06/21 01:59:19;;;;;;;15.23;13.93;;;22.30;99.90;;;;;;6227844;28;20229;-67
2022/06/21 02:02:26;;;;;;;16.10;14.07;;;22.40;99.90;;;;;;6227370;28;20664;-68
2022/06/21 02:05:36;;;;;;;15.43;14.13;;;22.40;99.90;;;;;;6227699;28;20312;-68
2022/06/21 02:08:43;;;;;;;16.23;14.60;;;22.40;99.90;;;;;;6228497;28;20362;-68
2022/06/21 02:11:51;;;;;;;15.30;14.00;;;22.30;99.90;;;;;;6227559;28;20268;-67
2022/06/21 02:14:59;;;;;;;14.40;13.00;;;22.30;99.90;;;;;;6227413;28;20244;-67
2022/06/21 02:18:04;;;;;;;13.50;12.27;;;22.30;99.90;;;;;;6226952;28;20662;-67
2022/06/21 02:21:12;;;;;;;13.53;11.90;;;22.30;99.90;;;;;;6226808;28;20535;-67
2022/06/21 02:24:16;;;;;;;15.30;13.50;;;22.20;99.90;;;;;;6227359;28;20243;-67
2022/06/21 02:27:23;;;;;;;15.53;14.10;;;22.10;99.90;;;;;;6227011;28;20555;-67
2022/06/21 02:30:29;;;;;;;13.53;12.27;;;22.00;99.90;;;;;;6227430;28;20256;-67
2022/06/21 02:33:34;;;;;;;16.53;13.00;;;21.90;99.90;;;;;;6229069;28;20293;-68
2022/06/21 02:36:50;;;;;;;15.00;13.57;;;21.80;99.90;;;;;;6228024;28;20230;-68
2022/06/21 02:39:54;;;;;;;14.80;13.50;;;21.70;99.90;;;;;;6227694;28;20229;-68
2022/06/21 02:43:01;;;;;;;16.30;14.20;;;21.80;99.90;;;;;;6227220;28;20595;-67
2022/06/21 02:46:10;;;;;;;15.60;14.17;;;21.90;99.90;;;;;;6226896;28;20275;-67
2022/06/21 02:49:17;;;;;;;16.13;14.33;;;21.90;99.90;;;;;;6226710;28;20601;-67
2022/06/21 02:52:24;;;;;;;16.20;14.83;;;21.90;99.90;;;;;;6226072;28;20670;-68
2022/06/21 02:55:38;;;;;;;15.13;13.63;;;21.90;99.90;;;;;;6216901;28;20239;-68
2022/06/21 02:58:45;;;;;;;17.37;13.97;;;21.90;99.90;;;;;;6226215;28;20243;-68
2022/06/21 03:01:58;;;;;;;14.37;12.97;;;21.90;99.90;;;;;;6225901;28;20252;-67
2022/06/21 03:05:05;;;;;;;14.60;13.10;;;21.90;99.90;;;;;;6226088;28;20225;-67
2022/06/21 03:08:09;;;;;;;14.53;13.03;;;21.90;99.90;;;;;;6226227;28;20237;-67
2022/06/21 03:11:13;;;;;;;15.23;13.47;;;21.80;99.90;;;;;;6225775;28;20674;-67
2022/06/21 03:14:19;;;;;;;14.03;12.47;;;21.70;99.90;;;;;;6227337;28;20233;-67
2022/06/21 03:17:31;;;;;;;15.07;13.67;;;21.70;99.90;;;;;;6227300;28;20225;-67
2022/06/21 03:20:35;;;;;;;18.20;13.13;;;21.70;99.90;;;;;;6226346;28;20594;-67
2022/06/21 03:23:39;;;;;;;14.20;13.00;;;21.70;99.90;;;;;;6225803;28;20251;-66
2022/06/21 03:26:45;;;;;;;14.80;13.33;;;21.60;99.90;;;;;;6225713;28;20224;-66
2022/06/21 03:29:48;;;;;;;15.30;13.87;;;21.60;99.90;;;;;;6225938;28;20229;-66
2022/06/21 03:32:56;;;;;;;14.97;13.67;;;21.60;99.90;;;;;;6225673;28;20243;-66
2022/06/21 03:36:01;;;;;;;14.53;13.23;;;21.50;99.90;;;;;;6225552;28;20236;-66
2022/06/21 03:39:08;;;;;;;14.60;13.30;;;21.60;99.90;;;;;;6225815;28;20838;-68
2022/06/21 03:42:13;;;;;;;15.03;13.70;;;21.40;99.90;;;;;;6225127;28;20237;-67
2022/06/21 03:45:21;;;;;;;13.70;12.30;;;21.40;99.90;;;;;;6225710;28;20239;-67
2022/06/21 03:48:31;;;;;;;15.63;13.33;;;21.50;99.90;;;;;;6225550;28;20224;-68
2022/06/21 03:51:39;;;;;;;13.43;12.00;;;21.50;99.90;;;;;;6225769;28;20692;-68
2022/06/21 03:54:46;;;;;;;14.60;12.30;;;21.50;99.90;;;;;;6225362;28;20256;-68
2022/06/21 03:57:55;;;;;;;19.60;12.27;;;21.60;99.90;;;;;;6220724;28;20704;-67
2022/06/21 04:01:05;;;;;;;15.20;12.50;;;21.60;99.90;;;;;;6225781;28;20233;-67
2022/06/21 04:04:15;;;;;;;14.40;12.90;;;21.60;99.90;;;;;;6229746;28;20360;-67
2022/06/21 04:07:25;;;;;;;13.13;12.03;;;21.60;99.90;;;;;;6230052;28;20569;-67
2022/06/21 04:10:34;;;;;;;13.83;12.63;;;21.70;99.90;;;;;;6229970;28;20662;-67
2022/06/21 04:13:44;;;;;;;13.63;12.23;;;21.70;99.90;;;;;;6229986;28;20229;-68
2022/06/21 04:16:53;;;;;;;12.37;11.20;;;21.70;99.90;;;;;;6230046;28;20719;-66
2022/06/21 04:20:02;;;;;;;12.20;11.20;;;21.70;99.90;;;;;;6229666;28;20565;-66
2022/06/21 04:23:15;;;;;;;15.30;12.13;;;21.70;99.90;;;;;;6230226;28;20669;-66
2022/06/21 04:26:23;;;;;;;13.63;12.27;;;21.70;99.90;;;;;;6236830;28;20240;-66
2022/06/21 04:29:30;;;;;;;12.33;11.03;;;21.80;99.90;;;;;;6230515;28;20229;-66
2022/06/21 04:32:38;;;;;;;13.37;10.60;;;21.90;99.90;;;;;;6230324;28;20526;-66
2022/06/21 04:35:49;;;;;;;12.40;11.40;;;21.90;99.90;;;;;;6229845;28;20233;-66
2022/06/21 04:38:58;;;;;;;12.73;10.83;;;22.00;99.90;;;;;;6229589;28;20229;-67
2022/06/21 04:42:07;;;;;;;12.40;11.20;;;22.10;99.90;;;;;;6230496;28;20233;-67
2022/06/21 04:45:19;;;;;;;12.17;10.83;;;22.20;99.90;;;;;;6230340;28;20244;-67
2022/06/21 04:48:32;;;;;;;11.03;10.13;;;22.20;99.90;;;;;;6230289;28;20229;-67
2022/06/21 04:51:40;;;;;;;12.67;11.37;;;22.30;99.90;;;;;;6229638;28;20225;-67
2022/06/21 04:54:44;;;;;;;12.70;11.60;;;22.40;99.90;;;;;;6229411;28;20237;-67
2022/06/21 04:57:48;;;;;;;11.60;10.80;;;22.50;99.90;;;;;;6229522;28;20229;-67
2022/06/21 05:00:51;;;;;;;12.23;10.43;;;22.60;99.90;;;;;;6229704;28;20576;-67
2022/06/21 05:03:56;;;;;;;11.17;10.17;;;22.70;99.90;;;;;;6228742;28;20229;-67
2022/06/21 05:07:04;;;;;;;12.20;10.90;;;22.80;99.90;;;;;;6229006;28;20225;-67
2022/06/21 05:10:14;;;;;;;11.07;9.97;;;22.80;99.90;;;;;;6228458;28;20560;-67
2022/06/21 05:13:22;;;;;;;12.90;11.77;;;22.90;99.90;;;;;;6227814;28;20556;-66
2022/06/21 05:16:29;;;;;;;11.83;10.83;;;22.90;99.90;;;;;;6228419;28;20229;-66
2022/06/21 05:19:36;;;;;;;10.90;10.10;;;23.00;99.90;;;;;;6228790;28;20256;-67
2022/06/21 05:22:43;;;;;;;12.53;11.53;;;23.20;99.90;;;;;;6228095;28;20237;-66
2022/06/21 05:25:47;;;;;;;13.73;12.53;;;23.40;99.90;;;;;;6228080;28;20221;-67
2022/06/21 05:28:54;;;;;;;13.47;12.13;;;23.60;99.90;;;;;;6227664;28;20236;-67
2022/06/21 05:32:03;;;;;;;16.50;13.60;;;23.70;99.90;;;;;;6227910;28;20225;-67
2022/06/21 05:35:11;;;;;;;14.23;12.90;;;23.90;99.90;;;;;;6227844;28;20229;-67
2022/06/21 05:38:21;;;;;;;16.10;14.40;;;23.90;99.90;;;;;;6228102;28;20584;-67
2022/06/21 05:41:33;;;;;;;17.00;15.50;;;23.90;99.90;;;;;;6228102;28;20229;-67
2022/06/21 05:44:42;;;;;;;15.90;14.57;;;23.80;99.90;;;;;;6228147;28;20228;-67
2022/06/21 05:47:51;;;;;;;17.53;15.83;;;23.80;99.90;;;;;;6227644;28;20577;-67
2022/06/21 05:50:55;;;;;;;15.90;14.40;;;24.00;99.90;;;;;;6227855;28;20239;-66
2022/06/21 05:54:06;;;;;;;16.40;15.10;;;24.30;99.90;;;;;;6227057;28;20233;-67
2022/06/21 05:57:14;;;;;;;18.67;17.17;;;24.40;99.90;;;;;;6227843;28;20240;-67
2022/06/21 06:00:25;;;;;;;19.50;17.67;;;24.40;99.90;;;;;;6227454;28;20233;-67
2022/06/21 06:03:33;;;;;;;17.60;16.00;;;24.30;99.90;;;;;;6218674;28;20233;-66
2022/06/21 06:06:39;;;;;;;15.40;14.10;;;23.90;99.90;;;;;;6227202;28;20316;-67
2022/06/21 06:09:48;;;;;;;15.43;13.83;;;23.80;99.90;;;;;;6227330;28;20705;-67
2022/06/21 06:12:56;;;;;;;14.90;13.40;;;23.60;99.90;;;;;;6226668;28;20241;-67
2022/06/21 06:16:04;;;;;;;14.17;12.80;;;24.00;99.90;;;;;;6227120;28;20238;-67
2022/06/21 06:19:17;;;;;;;15.20;13.70;;;24.60;99.90;;;;;;6202779;28;20236;-66
2022/06/21 06:22:25;;;;;;;14.80;13.57;;;25.20;99.90;;;;;;6202766;28;20583;-66
2022/06/21 06:25:34;;;;;;;15.60;14.20;;;25.50;99.90;;;;;;6209392;28;20815;-66
2022/06/21 06:28:44;;;;;;;17.03;15.63;;;25.50;99.90;;;;;;6225072;28;20221;-66
2022/06/21 06:31:52;;;;;;;13.20;12.20;;;25.50;99.90;;;;;;6214767;28;20877;-66
2022/06/21 06:34:56;;;;;;;15.43;13.83;;;25.50;99.90;;;;;;6223985;28;20228;-66
2022/06/21 06:37:59;;;;;;;15.30;14.00;;;25.40;99.90;;;;;;6208845;28;20201;-66
2022/06/21 06:41:08;;;;;;;16.13;14.70;;;25.40;99.90;;;;;;6201734;28;20246;-67
2022/06/21 06:44:12;;;;;;;17.60;15.83;;;25.30;99.90;;;;;;6201904;28;20692;-67
2022/06/21 06:47:18;;;;;;;17.37;16.03;;;25.40;99.90;;;;;;6202080;28;20550;-66
2022/06/21 06:50:26;;;;;;;15.67;14.37;;;25.80;99.90;;;;;;6201841;28;20542;-67
2022/06/21 06:53:37;;;;;;;16.00;14.43;;;26.40;99.90;;;;;;6201964;28;20280;-67
2022/06/21 06:56:53;;;;;;;17.13;15.63;;;26.70;99.90;;;;;;6202026;28;20233;-67
2022/06/21 06:59:56;;;;;;;16.10;14.90;;;26.60;99.90;;;;;;6202867;28;20228;-67
2022/06/21 07:03:04;;;;;;;17.07;15.67;;;26.50;99.90;;;;;;6201852;28;20364;-67
2022/06/21 07:06:15;;;;;;;16.67;15.03;;;26.30;99.90;;;;;;6189259;28;20229;-67
2022/06/21 07:09:25;;;;;;;18.40;16.80;;;26.10;99.90;;;;;;6223783;28;20234;-67
2022/06/21 07:12:31;;;;;;;17.63;16.13;;;25.70;99.90;;;;;;6214651;28;20361;-68
2022/06/21 07:15:39;;;;;;;20.53;18.57;;;25.40;99.90;;;;;;6211612;28;20665;-66
2022/06/21 07:18:48;;;;;;;20.20;17.80;;;24.90;99.90;;;;;;6215156;28;20368;-66
2022/06/21 07:21:51;;;;;;;18.90;17.20;;;24.40;99.90;;;;;;6203228;28;20682;-66
2022/06/21 07:25:03;;;;;;;19.67;17.80;;;23.30;99.90;;;;;;6202778;28;20236;-67
2022/06/21 07:28:14;;;;;;;19.10;17.20;;;23.10;99.90;;;;;;6219953;28;20225;-67
2022/06/21 07:31:23;;;;;;;20.07;18.03;;;22.90;99.90;;;;;;6224375;28;20225;-67
2022/06/21 07:34:32;;;;;;;19.07;17.27;;;22.80;99.90;;;;;;6225158;28;20256;-67
2022/06/21 07:37:39;;;;;;;18.13;16.53;;;22.70;99.90;;;;;;6225654;28;20657;-65
2022/06/21 07:40:47;;;;;;;18.37;16.80;;;22.60;99.90;;;;;;6225180;28;20225;-66
2022/06/21 07:43:55;;;;;;;17.83;16.00;;;22.60;99.90;;;;;;6200905;28;20226;-66
2022/06/21 07:47:02;;;;;;;19.50;17.60;;;22.60;99.90;;;;;;6210713;28;20190;-66
2022/06/21 07:50:10;;;;;;;20.13;18.30;;;22.40;99.90;;;;;;6212313;28;20266;-67
2022/06/21 07:53:20;;;;;;;18.10;16.50;;;22.10;99.90;;;;;;6210237;28;20677;-67
2022/06/21 07:56:30;;;;;;;18.87;17.13;;;22.10;99.90;;;;;;6211629;28;20230;-66
2022/06/21 07:59:38;;;;;;;21.23;19.33;;;22.20;99.90;;;;;;6212480;28;20221;-66
2022/06/21 08:09:40;;;;;;;25.43;23.03;;;21.10;99.90;;;;;;6215883;28;20244;-66
2022/06/21 08:12:44;;;;;;;25.57;23.27;;;20.90;99.90;;;;;;6224744;28;20233;-66
2022/06/21 08:15:53;;;;;;;25.93;23.30;;;20.80;99.90;;;;;;6224480;28;20229;-66
2022/06/21 08:19:03;;;;;;;25.37;22.87;;;20.50;99.90;;;;;;6224888;28;20249;-65
2022/06/21 08:22:09;;;;;;;25.50;23.20;;;20.60;99.90;;;;;;6200174;28;20578;-65
2022/06/21 08:25:29;;;;;;;23.30;21.10;;;20.60;99.90;;;;;;6200150;28;20356;-66
2022/06/21 08:28:38;;;;;;;26.47;23.27;;;20.60;99.90;;;;;;6201307;28;20683;-65
2022/06/21 08:31:51;;;;;;;24.50;22.00;;;20.60;99.90;;;;;;6200843;28;20240;-65
2022/06/21 08:35:00;;;;;;;23.00;20.87;;;20.40;99.90;;;;;;6200111;28;20265;-66
2022/06/21 08:38:11;;;;;;;25.00;22.60;;;20.30;99.90;;;;;;6220638;28;20218;-65
2022/06/21 08:41:56;;;;;;;26.13;23.60;;;20.20;99.90;;;;;;6224671;28;20225;-66
2022/06/21 08:45:43;;;;;;;27.37;24.30;;;20.20;99.90;;;;;;6224749;28;20328;-66
2022/06/21 08:49:19;;;;;;;24.70;22.30;;;20.20;99.90;;;;;;6201595;28;20230;-66
2022/06/21 08:52:52;;;;;;;24.40;21.90;;;20.40;99.90;;;;;;6157836;28;20253;-65
2022/06/21 08:56:01;;;;;;;26.20;23.37;;;20.50;99.90;;;;;;6228063;28;20229;-66
2022/06/21 08:59:15;;;;;;;24.93;22.43;;;20.60;99.90;;;;;;6228531;28;20288;-65
2022/06/21 09:02:34;;;;;;;22.43;20.23;;;20.20;99.90;;;;;;6228396;28;20233;-65
2022/06/21 09:05:57;;;;;;;24.37;21.97;;;20.20;99.90;;;;;;6228321;28;20221;-63
2022/06/21 09:09:17;;;;;;;23.23;19.87;;;20.40;99.90;;;;;;6228371;28;20233;-63
2022/06/21 09:12:30;;;;;;;26.33;21.50;;;20.60;99.90;;;;;;6219428;28;20233;-65
2022/06/21 09:15:56;;;;;;;24.50;22.00;;;20.60;99.90;;;;;;6227987;28;20226;-64
2022/06/21 09:19:11;;;;;;;22.70;20.30;;;20.60;99.90;;;;;;6228617;28;20686;-64
2022/06/21 09:22:20;;;;;;;23.40;21.10;;;20.60;99.90;;;;;;6228371;28;20241;-64
2022/06/21 09:25:35;;;;;;;25.23;22.67;;;20.70;99.90;;;;;;6228257;28;20237;-65
2022/06/21 09:28:41;;;;;;;23.97;21.70;;;20.60;99.90;;;;;;6228274;28;20233;-65
2022/06/21 09:31:55;;;;;;;23.60;21.40;;;20.50;99.90;;;;;;6227665;28;20767;-65
2022/06/21 09:35:11;;;;;;;25.80;20.90;;;20.50;99.90;;;;;;6227603;28;20284;-65
2022/06/21 09:38:25;;;;;;;24.13;21.63;;;20.40;99.90;;;;;;6227552;28;20351;-64
2022/06/21 09:41:47;;;;;;;23.27;21.03;;;20.10;99.90;;;;;;6227299;28;20300;-64
2022/06/21 09:45:02;;;;;;;23.57;21.20;;;20.10;99.90;;;;;;6227718;28;20597;-64
2022/06/21 09:48:15;;;;;;;22.10;19.73;;;20.30;99.90;;;;;;6217584;28;20222;-65
2022/06/21 09:51:25;;;;;;;24.33;21.83;;;20.50;99.90;;;;;;6203609;28;20244;-64
2022/06/21 09:54:33;;;;;;;19.60;17.63;;;20.60;99.90;;;;;;6219525;28;20225;-65
2022/06/21 09:57:49;;;;;;;20.93;18.40;;;20.70;99.90;;;;;;6226680;28;20239;-65
2022/06/21 10:01:01;;;;;;;18.33;16.63;;;20.90;99.90;;;;;;6226974;28;20229;-65
2022/06/21 10:04:17;;;;;;;20.43;18.40;;;21.10;99.90;;;;;;6227147;28;20245;-66
2022/06/21 10:07:38;;;;;;;19.73;17.70;;;21.40;99.90;;;;;;6226844;28;20303;-66
2022/06/21 10:10:57;;;;;;;19.70;17.70;;;21.60;99.90;;;;;;6227077;28;20241;-65
2022/06/21 10:14:30;;;;;;;18.53;16.53;;;21.90;99.90;;;;;;6226863;28;20236;-65
2022/06/21 10:17:53;;;;;;;18.30;16.50;;;22.20;99.90;;;;;;6227903;28;20244;-66
2022/06/21 10:21:23;;;;;;;20.77;18.53;;;22.40;99.90;;;;;;6227014;28;20229;-66
2022/06/21 10:24:46;;;;;;;22.90;18.33;;;22.60;99.90;;;;;;6226839;28;20237;-65
2022/06/21 10:28:12;;;;;;;18.33;16.43;;;22.80;99.90;;;;;;6226701;28;20752;-66
2022/06/21 10:31:47;;;;;;;19.33;17.57;;;22.90;99.90;;;;;;6226428;28;20581;-65
2022/06/21 10:35:20;;;;;;;18.97;16.97;;;22.50;99.90;;;;;;6226184;28;20270;-65
2022/06/21 10:38:59;;;;;;;20.67;18.50;;;22.80;99.90;;;;;;6226163;28;20674;-66
2022/06/21 10:45:50;;;;;;;20.07;18.27;;;22.60;99.90;;;;;;6226040;28;20231;-66
2022/06/21 10:49:22;;;;;;;19.30;17.43;;;22.60;99.90;;;;;;6226329;28;20642;-66
2022/06/21 10:52:50;;;;;;;19.70;17.73;;;22.20;99.90;;;;;;6225767;28;20264;-65
2022/06/21 10:59:28;;;;;;;21.53;19.43;;;21.90;99.90;;;;;;6225873;28;20221;-66
2022/06/21 11:03:17;;;;;;;23.00;17.17;;;21.90;99.90;;;;;;6225936;28;20233;-65
2022/06/21 11:06:37;;;;;;;19.67;17.67;;;21.60;99.90;;;;;;6199328;28;20566;-65
2022/06/21 11:09:48;;;;;;;19.57;17.53;;;21.70;99.90;;;;;;6225497;28;20828;-66
2022/06/21 11:13:01;;;;;;;19.13;17.33;;;21.80;99.90;;;;;;6225094;28;20773;-65
2022/06/21 11:16:12;;;;;;;20.40;18.30;;;21.90;99.90;;;;;;6226566;28;20236;-65
2022/06/21 11:19:24;;;;;;;17.23;15.67;;;21.90;99.90;;;;;;6226228;28;20233;-65
2022/06/21 11:22:43;;;;;;;17.73;15.57;;;22.00;99.90;;;;;;6220374;28;20692;-65
2022/06/21 11:25:52;;;;;;;19.67;17.60;;;22.10;99.90;;;;;;6229150;28;20230;-65
2022/06/21 11:29:05;;;;;;;21.13;18.93;;;22.20;99.90;;;;;;6225667;28;20664;-65
2022/06/21 11:32:22;;;;;;;18.47;16.70;;;22.30;99.90;;;;;;6225737;28;20226;-65
2022/06/21 11:35:34;;;;;;;19.07;17.00;;;22.50;99.90;;;;;;6225051;28;20236;-65
2022/06/21 11:38:53;;;;;;;18.20;16.30;;;22.70;99.90;;;;;;6225463;28;20229;-67
2022/06/21 11:42:08;;;;;;;17.10;15.50;;;22.80;99.90;;;;;;6224699;28;20233;-66
2022/06/21 11:45:46;;;;;;;17.50;15.70;;;22.80;99.90;;;;;;6225220;28;20294;-67
2022/06/21 11:49:10;;;;;;;19.23;15.80;;;22.90;99.90;;;;;;6220670;28;20233;-67
2022/06/21 11:52:38;;;;;;;19.27;17.30;;;23.00;99.90;;;;;;6225087;28;20681;-67
2022/06/21 11:55:46;;;;;;;19.80;17.90;;;23.00;99.90;;;;;;6224720;28;20234;-67
2022/06/21 11:58:55;;;;;;;24.43;18.90;;;23.00;99.90;;;;;;6224802;28;20229;-67
2022/06/21 12:02:10;;;;;;;20.00;18.30;;;22.90;99.90;;;;;;6224597;28;20394;-67
2022/06/21 12:05:26;;;;;;;23.63;20.03;;;22.60;99.90;;;;;;6224826;28;20323;-66
2022/06/21 12:08:35;;;;;;;21.23;18.93;;;22.50;99.90;;;;;;6224683;28;20226;-66
2022/06/21 12:11:54;;;;;;;18.73;16.77;;;22.40;99.90;;;;;;6225122;28;20235;-64
2022/06/21 12:15:16;;;;;;;19.73;17.73;;;22.40;99.90;;;;;;6225296;28;20225;-64
2022/06/21 12:18:23;;;;;;;25.70;18.43;;;22.30;99.90;;;;;;6224879;28;20229;-64
2022/06/21 12:21:28;;;;;;;19.87;17.83;;;22.40;99.90;;;;;;6224597;28;20403;-63
2022/06/21 12:24:32;;;;;;;20.03;17.67;;;22.50;99.90;;;;;;6218016;28;20308;-63
2022/06/21 12:27:36;;;;;;;20.33;18.20;;;22.50;99.90;;;;;;6228981;28;20693;-64
2022/06/21 12:30:40;;;;;;;19.87;17.87;;;22.60;99.90;;;;;;6229483;28;20235;-66
2022/06/21 12:33:55;;;;;;;18.70;16.90;;;22.70;99.90;;;;;;6229147;28;20583;-66
2022/06/21 12:37:03;;;;;;;21.63;18.50;;;22.80;99.90;;;;;;6229072;28;20229;-68
2022/06/21 12:40:19;;;;;;;21.53;19.20;;;22.90;99.90;;;;;;6229750;28;20225;-67
2022/06/21 12:43:37;;;;;;;18.63;16.73;;;23.00;99.90;;;;;;6230187;28;20716;-64
2022/06/21 12:46:50;;;;;;;20.43;18.53;;;23.00;99.90;;;;;;6229043;28;20696;-65
2022/06/21 12:50:29;;;;;;;18.63;16.83;;;23.10;99.90;;;;;;6228717;28;20241;-65
2022/06/21 12:54:03;;;;;;;22.13;15.30;;;23.10;99.90;;;;;;6228709;28;20604;-64
2022/06/21 12:57:46;;;;;;;20.57;18.37;;;23.10;99.90;;;;;;6228857;28;20494;-64
2022/06/21 13:00:54;;;;;;;19.80;17.90;;;23.20;99.90;;;;;;6229021;28;20225;-65
2022/06/21 13:04:19;;;;;;;18.83;16.93;;;23.30;99.90;;;;;;6228247;28;20303;-65
2022/06/21 13:07:38;;;;;;;18.70;16.90;;;23.30;99.90;;;;;;6228552;28;20239;-65
2022/06/21 13:10:48;;;;;;;19.20;16.10;;;23.30;99.90;;;;;;6228723;28;20221;-65
2022/06/21 13:14:06;;;;;;;17.90;16.10;;;23.30;99.90;;;;;;6228177;28;20558;-65
2022/06/21 13:17:27;;;;;;;18.80;17.00;;;23.40;99.90;;;;;;6223555;28;20539;-65
2022/06/21 13:20:45;;;;;;;18.73;16.93;;;23.40;99.90;;;;;;6204020;28;20230;-65
2022/06/21 13:24:02;;;;;;;19.60;17.57;;;23.20;99.90;;;;;;6203827;28;20681;-66
2022/06/21 13:27:11;;;;;;;19.33;16.00;;;23.00;99.90;;;;;;6195156;28;20388;-66
2022/06/21 13:30:33;;;;;;;18.33;16.43;;;22.90;99.90;;;;;;6204020;28;20234;-66
2022/06/21 13:33:57;;;;;;;19.07;17.37;;;22.80;99.90;;;;;;6203544;28;20240;-66
2022/06/21 13:37:08;;;;;;;18.87;16.93;;;22.70;99.90;;;;;;6203395;28;20563;-65
2022/06/21 13:40:20;;;;;;;18.60;16.17;;;22.70;99.90;;;;;;6203414;28;20230;-66
2022/06/21 13:43:35;;;;;;;20.07;16.70;;;22.90;99.90;;;;;;6203420;28;20238;-65
2022/06/21 13:46:46;;;;;;;19.27;17.30;;;23.20;99.90;;;;;;6203241;28;20655;-66
2022/06/21 13:49:55;;;;;;;18.03;16.27;;;23.30;99.90;;;;;;6226528;28;20232;-65
2022/06/21 13:53:07;;;;;;;18.57;16.67;;;23.30;99.90;;;;;;6227657;28;20229;-66
2022/06/21 13:56:19;;;;;;;18.90;16.90;;;23.40;99.90;;;;;;6202936;28;20344;-65
2022/06/21 13:59:28;;;;;;;20.50;16.97;;;23.50;99.90;;;;;;6203305;28;20802;-65
2022/06/21 14:02:41;;;;;;;17.30;15.00;;;23.60;99.90;;;;;;6203015;28;20230;-65
2022/06/21 14:05:54;;;;;;;18.27;16.30;;;23.70;99.90;;;;;;6203442;28;20595;-65
2022/06/21 14:09:02;;;;;;;16.67;14.77;;;23.80;99.90;;;;;;6203105;28;20241;-65
2022/06/21 14:12:11;;;;;;;16.80;15.10;;;23.80;99.90;;;;;;6222462;28;20255;-65
2022/06/21 14:15:23;;;;;;;16.53;14.33;;;23.70;99.90;;;;;;6226938;28;20233;-66
2022/06/21 14:18:33;;;;;;;15.20;13.70;;;23.80;99.90;;;;;;6227104;28;20558;-67
2022/06/21 14:21:41;;;;;;;18.30;15.90;;;23.90;99.90;;;;;;6226305;28;20233;-65
2022/06/21 14:24:51;;;;;;;14.80;13.30;;;24.00;99.90;;;;;;6226911;28;20237;-66
2022/06/21 14:27:59;;;;;;;14.63;13.17;;;24.00;99.90;;;;;;6227141;28;20225;-66
2022/06/21 14:31:07;;;;;;;15.43;14.03;;;24.00;99.90;;;;;;6222735;28;20229;-66
2022/06/21 14:34:16;;;;;;;16.23;14.60;;;24.00;99.90;;;;;;6226584;28;20235;-66
2022/06/21 14:37:27;;;;;;;15.43;13.93;;;23.90;99.90;;;;;;6226365;28;20252;-66
2022/06/21 14:40:55;;;;;;;14.37;12.87;;;24.00;99.90;;;;;;6226007;28;20236;-66
2022/06/21 14:44:06;;;;;;;15.57;14.10;;;24.10;99.90;;;;;;6226440;28;20251;-66
2022/06/21 14:47:17;;;;;;;16.20;14.43;;;24.10;99.90;;;;;;6225622;28;20197;-67
2022/06/21 14:50:28;;;;;;;16.07;14.47;;;24.10;99.90;;;;;;6226353;28;20224;-64
2022/06/21 14:54:21;;;;;;;14.10;12.70;;;24.00;99.90;;;;;;6226111;28;20232;-65
2022/06/21 14:57:34;;;;;;;15.70;13.37;;;24.00;99.90;;;;;;6128046;29;20363;-65
2022/06/21 15:00:43;;;;;;;13.87;12.40;;;23.90;99.90;;;;;;6151863;28;20722;-67
2022/06/21 15:04:01;;;;;;;15.60;13.07;;;23.80;99.90;;;;;;6219076;28;20243;-65
2022/06/21 15:07:25;;;;;;;14.87;12.07;;;23.90;99.90;;;;;;6225560;28;20383;-65
2022/06/21 15:10:33;;;;;;;20.50;14.57;;;23.90;99.90;;;;;;6225529;28;20560;-65
2022/06/21 15:13:48;;;;;;;15.77;13.90;;;23.90;99.90;;;;;;6225537;28;20244;-65
2022/06/21 15:17:10;;;;;;;15.63;14.03;;;23.90;99.90;;;;;;6225629;28;20240;-66
2022/06/21 15:20:20;;;;;;;15.43;14.03;;;23.90;99.90;;;;;;6225792;28;20224;-66
2022/06/21 15:23:29;;;;;;;13.87;12.53;;;23.90;99.90;;;;;;6228587;28;20241;-65
2022/06/21 15:26:38;;;;;;;17.83;14.67;;;24.00;99.90;;;;;;6229521;28;20552;-66
2022/06/21 15:29:44;;;;;;;16.33;14.73;;;24.10;99.90;;;;;;6227875;28;20225;-66
2022/06/21 15:32:54;;;;;;;15.30;13.67;;;24.00;99.90;;;;;;6225440;28;20596;-66
2022/06/21 15:36:10;;;;;;;16.50;14.50;;;24.00;99.90;;;;;;6225428;28;20556;-66
2022/06/21 15:39:21;;;;;;;15.80;14.10;;;24.00;99.90;;;;;;6225193;28;20259;-66
2022/06/21 15:42:30;;;;;;;15.73;13.80;;;23.90;99.90;;;;;;6225261;28;20255;-66
2022/06/21 15:45:38;;;;;;;15.20;13.60;;;23.80;99.90;;;;;;6225125;28;20229;-65
2022/06/21 15:52:24;;;;;;;16.80;13.60;;;23.60;99.90;;;;;;6212331;28;20237;-64
2022/06/21 15:55:35;;;;;;;15.10;13.60;;;23.60;99.90;;;;;;6224901;28;20252;-65
2022/06/21 15:58:52;;;;;;;16.80;14.33;;;23.60;99.90;;;;;;6228171;28;20242;-65
2022/06/21 16:02:05;;;;;;;14.30;11.77;;;23.50;99.90;;;;;;6223525;28;20246;-65
2022/06/21 16:05:17;;;;;;;13.57;12.37;;;23.60;99.90;;;;;;6217361;28;20197;-63
2022/06/21 16:08:23;;;;;;;17.50;13.47;;;23.60;99.90;;;;;;6213953;28;20230;-66
2022/06/21 16:11:32;;;;;;;14.50;12.90;;;23.70;99.90;;;;;;6220593;28;20229;-66
2022/06/21 16:14:40;;;;;;;14.27;12.87;;;23.70;99.90;;;;;;6211994;28;20237;-65
2022/06/21 16:17:47;;;;;;;13.30;11.90;;;23.70;99.90;;;;;;6212315;28;20319;-66
2022/06/21 16:20:51;;;;;;;12.97;11.70;;;23.60;99.90;;;;;;6207322;28;20234;-65
2022/06/21 16:23:59;;;;;;;14.57;13.10;;;23.60;99.90;;;;;;6205451;28;20229;-66
2022/06/21 16:27:08;;;;;;;18.77;13.57;;;23.60;99.90;;;;;;6205076;28;20235;-67
2022/06/21 16:30:17;;;;;;;15.33;13.50;;;23.50;99.90;;;;;;6205142;28;20233;-67